createdAt,value
2023-03-11T00:03:41.663Z,57.70
2023-03-11T00:05:27.073Z,57.60
2023-03-11T00:09:02.806Z,57.70
2023-03-11T00:09:25.077Z,57.70
2023-03-11T00:11:30.864Z,57.30
2023-03-11T00:12:41.233Z,57.10
2023-03-11T00:13:45.022Z,57.10
2023-03-11T00:14:47.398Z,57.30
2023-03-11T00:15:58.898Z,57.70
2023-03-11T00:17:03.682Z,57.10
2023-03-11T00:18:08.239Z,57.20
2023-03-11T00:19:29.364Z,57.40
2023-03-11T00:20:34.810Z,57.10
2023-03-11T00:21:38.181Z,57.20
2023-03-11T00:22:41.979Z,57.30
2023-03-11T00:23:45.502Z,56.90
2023-03-11T00:25:09.883Z,57.10
2023-03-11T00:26:26.752Z,57.20
2023-03-11T00:27:56.771Z,57.10
2023-03-11T00:29:24.526Z,57.30
2023-03-11T00:30:37.186Z,56.80
2023-03-11T00:31:41.709Z,56.50
2023-03-11T00:33:12.049Z,56.90
2023-03-11T00:36:51.394Z,57.00
2023-03-11T00:38:03.251Z,56.70
2023-03-11T00:39:06.983Z,56.90
2023-03-11T00:41:02.983Z,56.70
2023-03-11T00:44:53.463Z,57.30
2023-03-11T00:48:14.529Z,56.90
2023-03-11T00:50:10.881Z,57.10
2023-03-11T00:51:16.817Z,57.40
2023-03-11T00:52:19.240Z,57.60
2023-03-11T00:53:43.549Z,57.60
2023-03-11T00:55:10.414Z,57.10
2023-03-11T00:56:33.875Z,57.40
2023-03-11T00:57:36.181Z,57.50
2023-03-11T00:58:40.892Z,57.50
2023-03-11T00:59:44.599Z,57.30
2023-03-11T01:00:48.100Z,57.40
2023-03-11T01:01:50.379Z,57.20
2023-03-11T01:03:13.906Z,57.20
2023-03-11T01:04:23.631Z,57.20
2023-03-11T01:06:15.914Z,57.10
2023-03-11T01:07:50.571Z,56.90
2023-03-11T01:09:13.008Z,56.70
2023-03-11T01:10:58.909Z,57.00
2023-03-11T01:12:04.550Z,57.30
2023-03-11T01:13:07.954Z,57.20
2023-03-11T01:14:10.229Z,57.20
2023-03-11T01:15:35.709Z,57.30
2023-03-11T01:18:11.849Z,57.30
2023-03-11T01:19:26.809Z,57.60
2023-03-11T01:20:55.501Z,57.60
2023-03-11T01:22:22.636Z,57.70
2023-03-11T01:25:04.105Z,57.80
2023-03-11T01:26:28.827Z,57.80
2023-03-11T01:27:45.987Z,57.60
2023-03-11T01:31:58.270Z,58.00
2023-03-11T01:35:49.832Z,59.00
2023-03-11T01:37:22.869Z,58.20
2023-03-11T01:39:05.505Z,57.50
2023-03-11T01:40:15.158Z,57.40
2023-03-11T01:41:56.428Z,57.50
2023-03-11T01:42:59.744Z,57.60
2023-03-11T01:46:14.836Z,56.80
2023-03-11T01:48:06.970Z,57.00
2023-03-11T01:49:14.237Z,57.40
2023-03-11T01:50:22.944Z,57.30
2023-03-11T01:51:35.931Z,57.00
2023-03-11T01:53:17.567Z,56.90
2023-03-11T01:54:41.170Z,56.70
2023-03-11T01:56:06.188Z,56.80
2023-03-11T01:57:14.940Z,56.50
2023-03-11T01:58:32.227Z,57.00
2023-03-11T01:59:41.302Z,56.90
2023-03-11T02:00:45.876Z,56.50
2023-03-11T02:02:11.234Z,56.00
2023-03-11T02:03:43.107Z,55.90
2023-03-11T02:04:51.464Z,56.10
2023-03-11T02:06:33.427Z,56.00
2023-03-11T02:07:38.026Z,55.30
2023-03-11T02:08:55.676Z,55.20
2023-03-11T02:10:10.852Z,55.80
2023-03-11T02:11:44.858Z,55.90
2023-03-11T02:13:06.720Z,55.70
2023-03-11T02:14:11.601Z,56.00
2023-03-11T02:15:40.166Z,56.00
2023-03-11T02:16:42.681Z,56.50
2023-03-11T02:18:26.671Z,56.10
2023-03-11T02:19:55.092Z,56.00
2023-03-11T02:21:10.688Z,55.70
2023-03-11T02:22:22.870Z,55.80
2023-03-11T02:23:51.820Z,55.40
2023-03-11T02:25:10.869Z,55.80
2023-03-11T02:26:52.460Z,56.70
2023-03-11T02:28:35.433Z,56.30
2023-03-11T02:29:58.092Z,55.90
2023-03-11T02:31:11.010Z,55.40
2023-03-11T02:32:21.240Z,55.20
2023-03-11T02:33:36.883Z,55.70
2023-03-11T02:34:50.576Z,55.60
2023-03-11T02:35:57.710Z,55.80
2023-03-11T02:37:19.277Z,56.00
2023-03-11T02:38:30.776Z,56.10
2023-03-11T02:39:45.112Z,55.70
2023-03-11T02:41:12.630Z,56.00
2023-03-11T02:42:23.606Z,55.90
2023-03-11T02:43:39.454Z,56.10
2023-03-11T02:45:34.216Z,56.20
2023-03-11T02:46:50.357Z,56.40
2023-03-11T02:48:05.046Z,56.00
2023-03-11T02:49:24.547Z,56.20
2023-03-11T02:51:36.115Z,56.00
2023-03-11T02:54:32.473Z,55.80
2023-03-11T02:55:45.212Z,55.60
2023-03-11T02:56:47.551Z,56.00
2023-03-11T02:58:03.358Z,56.30
2023-03-11T02:59:38.523Z,56.20
2023-03-11T03:00:49.667Z,56.50
2023-03-11T03:01:55.313Z,56.40
2023-03-11T03:02:57.842Z,56.50
2023-03-11T03:04:34.914Z,56.40
2023-03-11T03:05:37.500Z,56.00
2023-03-11T03:06:46.861Z,56.30
2023-03-11T03:08:02.953Z,56.70
2023-03-11T03:09:06.996Z,56.50
2023-03-11T03:10:10.844Z,56.10
2023-03-11T03:11:14.349Z,56.40
2023-03-11T03:12:16.702Z,57.30
2023-03-11T03:13:24.765Z,56.70
2023-03-11T03:14:27.508Z,56.50
2023-03-11T03:15:39.713Z,56.50
2023-03-11T03:19:57.955Z,56.60
2023-03-11T03:21:01.274Z,55.80
2023-03-11T03:24:19.250Z,56.20
2023-03-11T03:25:27.200Z,56.30
2023-03-11T03:27:12.050Z,56.30
2023-03-11T03:28:46.451Z,56.00
2023-03-11T03:29:49.272Z,56.30
2023-03-11T03:31:13.390Z,56.30
2023-03-11T03:33:45.570Z,56.70
2023-03-11T03:34:48.152Z,56.70
2023-03-11T03:36:02.668Z,56.50
2023-03-11T03:37:11.877Z,56.60
2023-03-11T03:38:22.647Z,56.70
2023-03-11T03:39:39.215Z,56.80
2023-03-11T03:41:31.704Z,56.90
2023-03-11T03:43:22.042Z,56.90
2023-03-11T03:44:31.380Z,57.10
2023-03-11T03:45:46.836Z,57.10
2023-03-11T03:46:50.595Z,56.90
2023-03-11T03:47:53.653Z,56.90
2023-03-11T03:48:56.152Z,57.00
2023-03-11T03:49:59.326Z,57.00
2023-03-11T03:51:05.857Z,56.80
2023-03-11T03:52:10.416Z,56.90
2023-03-11T03:53:12.574Z,56.90
2023-03-11T03:54:16.903Z,56.70
2023-03-11T03:55:19.164Z,56.80
2023-03-11T03:56:22.311Z,56.30
2023-03-11T03:57:24.546Z,56.40
2023-03-11T03:58:27.638Z,56.70
2023-03-11T03:59:29.784Z,56.70
2023-03-11T04:00:33.022Z,56.70
2023-03-11T04:01:35.628Z,56.90
2023-03-11T04:02:40.184Z,57.10
2023-03-11T04:03:42.392Z,57.10
2023-03-11T04:04:45.462Z,57.00
2023-03-11T04:05:48.578Z,57.00
2023-03-11T04:06:50.719Z,57.10
2023-03-11T04:07:53.928Z,57.00
2023-03-11T04:08:56.795Z,57.10
2023-03-11T04:09:59.877Z,57.30
2023-03-11T04:11:01.947Z,57.50
2023-03-11T04:12:05.570Z,57.40
2023-03-11T04:13:07.689Z,57.40
2023-03-11T04:14:11.330Z,57.40
2023-03-11T04:15:13.445Z,57.40
2023-03-11T04:16:20.321Z,57.50
2023-03-11T04:17:22.554Z,57.50
2023-03-11T04:18:27.449Z,57.40
2023-03-11T04:19:29.624Z,57.40
2023-03-11T04:20:33.184Z,57.40
2023-03-11T04:21:35.595Z,57.20
2023-03-11T04:22:38.674Z,57.20
2023-03-11T04:23:40.935Z,57.30
2023-03-11T04:24:44.000Z,57.30
2023-03-11T04:25:46.170Z,57.40
2023-03-11T04:26:49.397Z,57.50
2023-03-11T04:27:52.381Z,57.60
2023-03-11T04:28:55.700Z,58.40
2023-03-11T04:29:57.823Z,57.70
2023-03-11T04:31:01.013Z,58.30
2023-03-11T04:32:04.266Z,57.80
2023-03-11T04:33:06.664Z,57.90
2023-03-11T04:34:11.146Z,58.00
2023-03-11T04:35:13.308Z,58.00
2023-03-11T04:36:16.485Z,58.20
2023-03-11T04:37:18.677Z,58.30
2023-03-11T04:38:21.871Z,58.40
2023-03-11T04:39:24.072Z,58.50
2023-03-11T04:40:27.231Z,58.60
2023-03-11T04:41:29.420Z,59.30
2023-03-11T04:42:32.539Z,58.80
2023-03-11T04:43:35.614Z,58.80
2023-03-11T04:44:38.933Z,59.10
2023-03-11T04:45:43.425Z,59.10
2023-03-11T04:46:45.575Z,59.10
2023-03-11T04:47:49.768Z,59.10
2023-03-11T04:48:52.995Z,59.20
2023-03-11T04:49:56.476Z,59.20
2023-03-11T04:50:59.628Z,59.40
2023-03-11T04:52:01.736Z,59.40
2023-03-11T04:53:04.864Z,59.50
2023-03-11T04:54:07.100Z,59.50
2023-03-11T04:55:11.221Z,59.50
2023-03-11T04:56:13.666Z,59.40
2023-03-11T04:57:16.928Z,59.40
2023-03-11T04:58:19.126Z,59.50
2023-03-11T04:59:22.228Z,59.50
2023-03-11T05:00:25.178Z,59.50
2023-03-11T05:01:28.935Z,59.50
2023-03-11T05:02:31.145Z,59.50
2023-03-11T05:03:34.280Z,59.50
2023-03-11T05:04:36.514Z,59.50
2023-03-11T05:05:41.296Z,59.40
2023-03-11T05:06:43.419Z,59.50
2023-03-11T05:07:46.789Z,59.60
2023-03-11T05:08:48.924Z,59.70
2023-03-11T05:09:52.151Z,59.70
2023-03-11T05:10:54.304Z,59.80
2023-03-11T05:11:57.552Z,59.70
2023-03-11T05:12:59.778Z,59.60
2023-03-11T05:14:03.142Z,59.70
2023-03-11T05:15:06.284Z,59.60
2023-03-11T05:16:09.445Z,59.60
2023-03-11T05:17:13.576Z,59.60
2023-03-11T05:18:16.822Z,59.90
2023-03-11T05:19:31.136Z,59.60
2023-03-11T05:20:34.356Z,59.60
2023-03-11T05:21:37.761Z,59.50
2023-03-11T05:22:41.017Z,59.50
2023-03-11T05:23:43.147Z,59.50
2023-03-11T05:24:46.897Z,59.50
2023-03-11T05:25:49.049Z,59.40
2023-03-11T05:26:52.112Z,59.40
2023-03-11T05:27:54.369Z,59.40
2023-03-11T05:28:57.423Z,59.40
2023-03-11T05:29:59.540Z,59.40
2023-03-11T05:31:02.690Z,59.40
2023-03-11T05:32:05.371Z,59.30
2023-03-11T05:33:08.529Z,59.30
2023-03-11T05:34:10.753Z,59.20
2023-03-11T05:35:13.953Z,59.10
2023-03-11T05:36:16.104Z,59.20
2023-03-11T05:37:20.554Z,59.10
2023-03-11T05:38:22.758Z,59.10
2023-03-11T05:39:25.909Z,59.10
2023-03-11T05:40:28.105Z,59.10
2023-03-11T05:41:31.358Z,59.10
2023-03-11T05:42:33.740Z,59.10
2023-03-11T05:43:36.825Z,59.00
2023-03-11T05:44:39.123Z,59.10
2023-03-11T05:45:42.163Z,58.90
2023-03-11T05:46:44.355Z,58.80
2023-03-11T05:47:47.508Z,58.80
2023-03-11T05:48:49.672Z,58.80
2023-03-11T05:49:52.794Z,58.70
2023-03-11T05:50:54.891Z,58.50
2023-03-11T05:51:58.859Z,58.50
2023-03-11T05:53:02.449Z,58.60
2023-03-11T05:54:11.456Z,58.60
2023-03-11T05:55:13.595Z,58.60
2023-03-11T05:56:16.960Z,58.70
2023-03-11T05:57:19.139Z,58.60
2023-03-11T05:58:22.311Z,58.60
2023-03-11T05:59:24.453Z,58.60
2023-03-11T06:00:29.490Z,58.60
2023-03-11T06:01:31.725Z,58.80
2023-03-11T06:02:34.824Z,58.80
2023-03-11T06:03:37.150Z,58.80
2023-03-11T06:04:40.424Z,58.70
2023-03-11T06:05:45.432Z,58.70
2023-03-11T06:06:48.570Z,58.50
2023-03-11T06:07:51.672Z,58.50
2023-03-11T06:08:55.787Z,58.30
2023-03-11T06:09:58.905Z,58.40
2023-03-11T06:11:02.377Z,58.50
2023-03-11T06:12:05.881Z,58.90
2023-03-11T06:13:08.157Z,58.90
2023-03-11T06:14:13.614Z,59.10
2023-03-11T06:15:15.886Z,59.30
2023-03-11T06:16:19.036Z,59.40
2023-03-11T06:17:21.176Z,59.50
2023-03-11T06:18:26.292Z,59.80
2023-03-11T06:19:29.260Z,59.80
2023-03-11T06:20:32.571Z,59.90
2023-03-11T06:21:34.708Z,59.90
2023-03-11T06:22:40.022Z,60.10
2023-03-11T06:23:43.509Z,60.20
2023-03-11T06:24:46.981Z,60.20
2023-03-11T06:25:57.062Z,60.30
2023-03-11T06:26:59.188Z,60.40
2023-03-11T06:28:02.244Z,60.50
2023-03-11T06:29:04.429Z,60.50
2023-03-11T06:30:10.177Z,60.50
2023-03-11T06:31:16.938Z,60.40
2023-03-11T06:32:20.128Z,60.30
2023-03-11T06:33:22.349Z,60.30
2023-03-11T06:34:25.413Z,60.10
2023-03-11T06:35:27.544Z,60.10
2023-03-11T06:36:30.766Z,60.10
2023-03-11T06:37:36.377Z,60.00
2023-03-11T06:38:39.572Z,59.50
2023-03-11T06:39:42.644Z,59.20
2023-03-11T06:40:46.113Z,59.30
2023-03-11T06:41:49.165Z,59.50
2023-03-11T06:42:52.428Z,59.40
2023-03-11T06:43:54.822Z,59.60
2023-03-11T06:44:58.192Z,58.70
2023-03-11T06:46:00.651Z,59.00
2023-03-11T06:47:03.874Z,59.30
2023-03-11T06:48:06.300Z,59.30
2023-03-11T06:49:09.511Z,59.30
2023-03-11T06:50:12.069Z,59.40
2023-03-11T06:51:15.547Z,59.10
2023-03-11T06:52:19.008Z,58.90
2023-03-11T06:53:21.325Z,59.10
2023-03-11T06:54:24.482Z,59.10
2023-03-11T06:55:26.680Z,59.10
2023-03-11T06:56:31.100Z,59.20
2023-03-11T06:57:33.422Z,59.10
2023-03-11T06:58:39.039Z,59.20
2023-03-11T06:59:42.222Z,59.20
2023-03-11T07:00:44.460Z,59.80
2023-03-11T07:01:47.538Z,59.10
2023-03-11T07:02:49.729Z,58.90
2023-03-11T07:03:53.438Z,58.90
2023-03-11T07:04:55.610Z,58.70
2023-03-11T07:05:59.282Z,58.70
2023-03-11T07:07:01.477Z,58.10
2023-03-11T07:08:04.677Z,58.20
2023-03-11T07:09:07.772Z,58.20
2023-03-11T07:10:12.065Z,58.00
2023-03-11T07:11:16.894Z,57.80
2023-03-11T07:12:23.091Z,57.90
2023-03-11T07:13:25.276Z,57.50
2023-03-11T07:14:28.446Z,57.80
2023-03-11T07:15:30.557Z,57.80
2023-03-11T07:16:33.921Z,58.00
2023-03-11T07:17:37.083Z,58.20
2023-03-11T07:18:39.514Z,58.20
2023-03-11T07:19:42.631Z,58.30
2023-03-11T07:20:44.863Z,58.30
2023-03-11T07:21:48.032Z,58.40
2023-03-11T07:22:50.138Z,58.40
2023-03-11T07:23:54.568Z,58.40
2023-03-11T07:24:57.659Z,57.80
2023-03-11T07:25:59.936Z,57.80
2023-03-11T07:27:03.028Z,57.70
2023-03-11T07:28:06.641Z,57.70
2023-03-11T07:29:10.204Z,57.90
2023-03-11T07:30:13.307Z,57.20
2023-03-11T07:31:20.045Z,56.90
2023-03-11T07:32:22.294Z,56.60
2023-03-11T07:33:26.316Z,55.80
2023-03-11T07:34:28.793Z,56.30
2023-03-11T07:35:32.252Z,56.50
2023-03-11T07:36:34.407Z,55.70
2023-03-11T07:37:37.498Z,55.40
2023-03-11T07:38:41.688Z,55.80
2023-03-11T07:39:45.093Z,56.10
2023-03-11T07:40:47.423Z,56.20
2023-03-11T07:41:50.598Z,55.50
2023-03-11T07:42:52.719Z,55.00
2023-03-11T07:43:58.612Z,55.10
2023-03-11T07:45:00.719Z,54.30
2023-03-11T07:46:06.797Z,54.10
2023-03-11T07:47:10.025Z,54.40
2023-03-11T07:48:12.177Z,54.70
2023-03-11T07:49:15.476Z,54.00
2023-03-11T07:50:17.858Z,54.00
2023-03-11T07:51:23.174Z,53.90
2023-03-11T07:52:26.412Z,53.70
2023-03-11T07:53:28.559Z,54.00
2023-03-11T07:54:31.664Z,54.10
2023-03-11T07:55:34.469Z,53.40
2023-03-11T07:56:38.346Z,52.80
2023-03-11T07:57:40.541Z,52.50
2023-03-11T07:58:45.932Z,51.90
2023-03-11T07:59:50.588Z,51.50
2023-03-11T08:00:54.583Z,52.20
2023-03-11T08:01:57.901Z,52.40
2023-03-11T08:03:00.032Z,50.50
2023-03-11T08:04:04.684Z,51.40
2023-03-11T08:05:08.566Z,51.30
2023-03-11T08:06:14.318Z,51.30
2023-03-11T08:07:17.461Z,51.40
2023-03-11T08:08:19.596Z,51.40
2023-03-11T08:09:22.825Z,51.30
2023-03-11T08:10:24.978Z,51.30
2023-03-11T08:11:28.784Z,50.70
2023-03-11T08:12:30.982Z,50.40
2023-03-11T08:13:34.333Z,50.60
2023-03-11T08:14:38.933Z,50.70
2023-03-11T08:15:42.394Z,50.60
2023-03-11T08:16:45.569Z,50.80
2023-03-11T08:17:47.638Z,50.70
2023-03-11T08:18:52.780Z,50.30
2023-03-11T08:19:54.923Z,49.50
2023-03-11T08:20:58.164Z,48.80
2023-03-11T08:22:02.905Z,48.10
2023-03-11T08:23:05.097Z,48.20
2023-03-11T08:24:08.941Z,48.90
2023-03-11T08:25:11.112Z,49.10
2023-03-11T08:26:16.990Z,48.30
2023-03-11T08:27:20.093Z,48.10
2023-03-11T08:28:22.301Z,47.30
2023-03-11T08:29:25.680Z,47.10
2023-03-11T08:30:28.788Z,47.50
2023-03-11T08:31:35.030Z,47.40
2023-03-11T08:32:38.327Z,47.40
2023-03-11T08:33:41.948Z,47.10
2023-03-11T08:34:44.190Z,47.70
2023-03-11T08:35:47.380Z,48.10
2023-03-11T08:36:49.511Z,48.00
2023-03-11T08:37:52.822Z,47.00
2023-03-11T08:38:55.101Z,46.10
2023-03-11T08:39:58.627Z,46.30
2023-03-11T08:41:01.002Z,46.70
2023-03-11T08:42:04.210Z,46.70
2023-03-11T08:43:06.342Z,46.60
2023-03-11T08:44:09.708Z,47.30
2023-03-11T08:45:12.293Z,47.10
2023-03-11T08:46:25.432Z,46.30
2023-03-11T08:47:30.080Z,47.50
2023-03-11T08:48:32.538Z,46.70
2023-03-11T08:49:36.335Z,47.50
2023-03-11T08:50:53.361Z,46.90
2023-03-11T08:51:57.280Z,47.20
2023-03-11T08:53:03.071Z,47.10
2023-03-11T08:54:06.871Z,47.40
2023-03-11T08:55:12.923Z,47.90
2023-03-11T08:56:16.137Z,48.10
2023-03-11T08:57:19.243Z,49.20
2023-03-11T08:58:22.691Z,47.30
2023-03-11T08:59:25.879Z,48.20
2023-03-11T09:00:29.035Z,47.50
2023-03-11T09:01:31.238Z,47.70
2023-03-11T09:02:35.936Z,47.60
2023-03-11T09:03:38.807Z,47.30
2023-03-11T09:04:41.859Z,46.70
2023-03-11T09:05:44.067Z,47.40
2023-03-11T09:06:48.872Z,46.50
2023-03-11T09:07:51.409Z,45.40
2023-03-11T09:08:54.647Z,46.00
2023-03-11T09:09:57.873Z,46.50
2023-03-11T09:11:00.067Z,47.00
2023-03-11T09:12:03.134Z,46.10
2023-03-11T09:13:05.258Z,46.10
2023-03-11T09:14:08.443Z,45.30
2023-03-11T09:15:10.784Z,45.40
2023-03-11T09:16:16.215Z,45.20
2023-03-11T09:17:18.477Z,45.70
2023-03-11T09:18:23.553Z,45.70
2023-03-11T09:19:25.796Z,45.70
2023-03-11T09:20:28.943Z,45.40
2023-03-11T09:21:32.146Z,44.80
2023-03-11T09:22:34.312Z,45.30
2023-03-11T09:23:37.531Z,45.00
2023-03-11T09:24:39.814Z,45.40
2023-03-11T09:25:42.998Z,46.00
2023-03-11T09:26:46.067Z,46.10
2023-03-11T09:27:48.288Z,45.50
2023-03-11T09:28:51.410Z,44.50
2023-03-11T09:29:53.515Z,44.60
2023-03-11T09:30:56.638Z,44.30
2023-03-11T09:31:59.220Z,44.40
2023-03-11T09:33:02.507Z,44.00
2023-03-11T09:34:07.451Z,43.90
2023-03-11T09:35:10.137Z,43.70
2023-03-11T09:36:16.037Z,44.10
2023-03-11T09:37:18.148Z,43.50
2023-03-11T09:38:21.324Z,43.80
2023-03-11T09:39:23.420Z,43.50
2023-03-11T09:40:47.115Z,42.30
2023-03-11T09:41:58.310Z,42.20
2023-03-11T09:43:17.897Z,42.40
2023-03-11T09:44:28.105Z,42.80
2023-03-11T09:45:34.885Z,41.50
2023-03-11T09:47:02.212Z,41.70
2023-03-11T09:48:22.662Z,41.50
2023-03-11T09:49:39.860Z,42.40
2023-03-11T09:50:50.559Z,42.20
2023-03-11T09:52:05.998Z,41.70
2023-03-11T09:53:33.976Z,42.20
2023-03-11T09:54:41.283Z,42.70
2023-03-11T09:55:47.938Z,42.20
2023-03-11T09:56:51.655Z,42.80
2023-03-11T09:57:58.559Z,42.10
2023-03-11T09:59:08.105Z,41.60
2023-03-11T10:00:13.168Z,42.00
2023-03-11T10:01:24.837Z,41.90
2023-03-11T10:02:27.860Z,41.70
2023-03-11T10:03:37.372Z,41.70
2023-03-11T10:04:52.747Z,40.80
2023-03-11T10:06:07.318Z,40.70
2023-03-11T10:07:18.963Z,40.80
2023-03-11T10:08:29.295Z,41.10
2023-03-11T10:09:40.482Z,41.20
2023-03-11T10:10:49.604Z,40.20
2023-03-11T10:12:09.867Z,39.70
2023-03-11T10:13:19.996Z,39.40
2023-03-11T10:14:56.816Z,39.60
2023-03-11T10:16:11.200Z,40.00
2023-03-11T10:17:37.506Z,40.60
2023-03-11T10:18:52.559Z,40.50
2023-03-11T10:20:10.510Z,39.30
2023-03-11T10:21:26.575Z,39.60
2023-03-11T10:22:43.674Z,40.30
2023-03-11T10:24:03.766Z,39.80
2023-03-11T10:25:14.689Z,39.10
2023-03-11T10:26:25.560Z,38.30
2023-03-11T10:27:35.953Z,39.40
2023-03-11T10:28:45.400Z,40.30
2023-03-11T10:29:58.598Z,39.80
2023-03-11T10:31:14.439Z,39.10
2023-03-11T10:32:25.511Z,38.90
2023-03-11T10:33:35.735Z,39.00
2023-03-11T10:34:44.809Z,40.20
2023-03-11T10:35:54.485Z,40.10
2023-03-11T10:37:03.959Z,39.30
2023-03-11T10:38:15.450Z,39.00
2023-03-11T10:39:20.544Z,39.30
2023-03-11T10:40:29.861Z,38.70
2023-03-11T10:41:43.889Z,39.30
2023-03-11T10:42:47.787Z,38.30
2023-03-11T10:43:58.131Z,38.80
2023-03-11T10:45:00.787Z,39.00
2023-03-11T10:46:13.434Z,38.80
2023-03-11T10:47:20.733Z,39.40
2023-03-11T10:48:24.854Z,40.90
2023-03-11T10:49:28.037Z,40.30
2023-03-11T10:50:36.610Z,40.90
2023-03-11T10:51:42.059Z,39.50
2023-03-11T10:53:06.727Z,39.30
2023-03-11T10:54:09.879Z,40.20
2023-03-11T10:55:19.960Z,40.90
2023-03-11T10:56:29.487Z,39.30
2023-03-11T10:57:36.863Z,39.10
2023-03-11T10:58:49.402Z,38.60
2023-03-11T10:59:55.486Z,39.80
2023-03-11T11:01:03.488Z,40.30
2023-03-11T11:02:26.457Z,39.50
2023-03-11T11:03:29.974Z,39.90
2023-03-11T11:04:40.053Z,39.90
2023-03-11T11:05:42.212Z,39.30
2023-03-11T11:06:46.632Z,38.60
2023-03-11T11:07:50.532Z,38.50
2023-03-11T11:09:15.887Z,39.50
2023-03-11T11:10:20.818Z,38.60
2023-03-11T11:11:25.934Z,38.90
2023-03-11T11:12:28.078Z,37.80
2023-03-11T11:13:34.456Z,36.40
2023-03-11T11:14:48.260Z,35.70
2023-03-11T11:15:57.644Z,36.30
2023-03-11T11:16:59.899Z,37.50
2023-03-11T11:18:07.049Z,38.20
2023-03-11T11:19:12.646Z,37.30
2023-03-11T11:20:18.923Z,39.10
2023-03-11T11:21:33.560Z,37.70
2023-03-11T11:22:38.313Z,38.30
2023-03-11T11:23:44.979Z,38.00
2023-03-11T11:24:51.630Z,38.60
2023-03-11T11:26:00.482Z,38.50
2023-03-11T11:27:14.907Z,38.00
2023-03-11T11:28:20.879Z,38.40
2023-03-11T11:29:23.987Z,37.80
2023-03-11T11:30:28.090Z,38.60
2023-03-11T11:31:31.255Z,39.20
2023-03-11T11:32:33.692Z,39.30
2023-03-11T11:33:49.783Z,39.50
2023-03-11T11:34:59.807Z,40.00
2023-03-11T11:36:05.204Z,40.10
2023-03-11T11:37:14.354Z,39.60
2023-03-11T11:38:19.523Z,40.10
2023-03-11T11:39:25.160Z,40.00
2023-03-11T11:40:32.298Z,39.50
2023-03-11T11:41:37.221Z,39.80
2023-03-11T11:42:45.241Z,39.30
2023-03-11T11:43:53.249Z,40.50
2023-03-11T11:45:00.579Z,39.90
2023-03-11T11:46:11.202Z,39.30
2023-03-11T11:47:19.007Z,40.30
2023-03-11T11:48:27.959Z,37.80
2023-03-11T11:49:33.485Z,37.80
2023-03-11T11:50:39.421Z,38.30
2023-03-11T11:51:48.090Z,37.90
2023-03-11T11:52:55.946Z,37.00
2023-03-11T11:54:17.359Z,36.40
2023-03-11T11:55:23.922Z,36.20
2023-03-11T11:56:27.574Z,36.30
2023-03-11T11:57:30.294Z,35.80
2023-03-11T11:58:33.513Z,36.20
2023-03-11T11:59:36.192Z,36.80
2023-03-11T12:00:51.043Z,37.20
2023-03-11T12:02:08.630Z,37.10
2023-03-11T12:03:33.537Z,37.40
2023-03-11T12:04:56.072Z,37.70
2023-03-11T12:06:03.159Z,37.80
2023-03-11T12:08:01.435Z,38.00
2023-03-11T12:09:16.030Z,37.80
2023-03-11T12:10:28.881Z,38.80
2023-03-11T12:11:41.787Z,39.20
2023-03-11T12:13:09.181Z,35.80
2023-03-11T12:14:22.197Z,36.50
2023-03-11T12:15:31.501Z,37.70
2023-03-11T12:16:42.463Z,38.00
2023-03-11T12:17:50.938Z,38.00
2023-03-11T12:18:59.794Z,38.70
2023-03-11T12:20:11.291Z,37.40
2023-03-11T12:21:29.712Z,36.60
2023-03-11T12:23:06.145Z,37.50
2023-03-11T12:24:29.709Z,37.90
2023-03-11T12:25:45.159Z,37.70
2023-03-11T12:26:53.067Z,38.30
2023-03-11T12:28:04.194Z,38.70
2023-03-11T12:29:19.834Z,39.30
2023-03-11T12:30:27.331Z,36.80
2023-03-11T12:31:38.880Z,33.50
2023-03-11T12:32:48.994Z,34.80
2023-03-11T12:33:58.965Z,33.90
2023-03-11T12:35:21.101Z,32.70
2023-03-11T12:36:29.891Z,31.90
2023-03-11T12:37:32.932Z,32.50
2023-03-11T12:38:39.154Z,33.20
2023-03-11T12:39:42.652Z,33.70
2023-03-11T12:41:01.541Z,34.20
2023-03-11T12:42:20.352Z,35.10
2023-03-11T12:43:41.814Z,35.50
2023-03-11T12:44:46.302Z,35.50
2023-03-11T12:45:50.441Z,35.20
2023-03-11T12:47:24.809Z,34.90
2023-03-11T12:48:35.160Z,35.00
2023-03-11T12:49:40.965Z,34.60
2023-03-11T12:50:44.648Z,35.40
2023-03-11T12:52:02.309Z,36.00
2023-03-11T12:53:05.457Z,34.40
2023-03-11T12:54:30.714Z,34.80
2023-03-11T12:55:38.313Z,36.00
2023-03-11T12:56:44.787Z,35.70
2023-03-11T12:57:57.536Z,35.30
2023-03-11T12:59:26.844Z,34.40
2023-03-11T13:00:49.307Z,35.90
2023-03-11T13:02:03.043Z,36.80
2023-03-11T13:03:51.984Z,37.70
2023-03-11T13:05:07.591Z,36.50
2023-03-11T13:06:41.750Z,36.30
2023-03-11T13:07:51.182Z,37.20
2023-03-11T13:08:56.088Z,36.70
2023-03-11T13:10:13.573Z,36.10
2023-03-11T13:11:40.141Z,35.70
2023-03-11T13:12:45.206Z,35.30
2023-03-11T13:13:48.623Z,36.20
2023-03-11T13:15:32.326Z,36.40
2023-03-11T13:16:41.243Z,37.10
2023-03-11T13:17:56.676Z,36.80
2023-03-11T13:19:33.942Z,37.20
2023-03-11T13:20:56.275Z,37.20
2023-03-11T13:22:01.711Z,37.20
2023-03-11T13:23:24.788Z,37.20
2023-03-11T13:24:52.304Z,36.90
2023-03-11T13:26:23.133Z,36.50
2023-03-11T13:27:42.089Z,36.60
2023-03-11T13:29:22.427Z,36.70
2023-03-11T13:30:35.001Z,36.50
2023-03-11T13:31:49.247Z,36.80
2023-03-11T13:33:18.337Z,36.60
2023-03-11T13:34:38.018Z,36.40
2023-03-11T13:35:55.488Z,36.90
2023-03-11T13:37:25.221Z,36.90
2023-03-11T13:39:03.644Z,36.90
2023-03-11T13:40:21.130Z,36.40
2023-03-11T13:41:30.950Z,37.70
2023-03-11T13:42:43.888Z,36.10
2023-03-11T13:43:50.307Z,35.70
2023-03-11T13:44:53.602Z,36.50
2023-03-11T13:46:02.947Z,37.00
2023-03-11T13:47:14.503Z,36.10
2023-03-11T13:48:24.818Z,36.20
2023-03-11T13:49:35.636Z,36.10
2023-03-11T13:50:44.497Z,36.60
2023-03-11T13:51:50.171Z,37.90
2023-03-11T13:52:55.755Z,37.30
2023-03-11T13:54:03.385Z,37.10
2023-03-11T13:55:16.857Z,37.20
2023-03-11T13:56:25.875Z,37.20
2023-03-11T13:57:31.912Z,36.40
2023-03-11T13:58:35.481Z,36.10
2023-03-11T13:59:38.705Z,36.60
2023-03-11T14:00:49.698Z,36.40
2023-03-11T14:01:53.275Z,36.90
2023-03-11T14:02:59.275Z,35.40
2023-03-11T14:04:01.519Z,34.30
2023-03-11T14:05:08.338Z,33.60
2023-03-11T14:06:19.443Z,34.10
2023-03-11T14:07:27.231Z,34.00
2023-03-11T14:08:32.989Z,34.80
2023-03-11T14:09:35.153Z,35.20
2023-03-11T14:10:38.381Z,35.80
2023-03-11T14:11:43.598Z,34.50
2023-03-11T14:12:47.805Z,34.10
2023-03-11T14:13:53.937Z,35.20
2023-03-11T14:15:03.512Z,34.30
2023-03-11T14:16:11.553Z,32.90
2023-03-11T14:17:17.932Z,32.90
2023-03-11T14:18:33.212Z,33.00
2023-03-11T14:19:35.367Z,33.90
2023-03-11T14:20:39.630Z,34.50
2023-03-11T14:21:53.148Z,35.40
2023-03-11T14:22:57.992Z,34.20
2023-03-11T14:24:01.624Z,34.00
2023-03-11T14:25:09.944Z,34.50
2023-03-11T14:26:20.178Z,33.80
2023-03-11T14:27:22.410Z,33.50
2023-03-11T14:28:27.408Z,34.60
2023-03-11T14:29:36.782Z,34.90
2023-03-11T14:30:38.949Z,35.10
2023-03-11T14:31:44.392Z,34.70
2023-03-11T14:32:57.495Z,35.80
2023-03-11T14:34:06.735Z,34.00
2023-03-11T14:35:21.484Z,33.70
2023-03-11T14:36:24.858Z,34.30
2023-03-11T14:37:32.486Z,34.10
2023-03-11T14:38:35.564Z,33.10
2023-03-11T14:39:39.216Z,34.30
2023-03-11T14:40:42.676Z,35.00
2023-03-11T14:41:44.992Z,34.90
2023-03-11T14:42:48.700Z,34.30
2023-03-11T14:43:55.834Z,34.80
2023-03-11T14:45:06.137Z,35.10
2023-03-11T14:46:16.881Z,34.30
2023-03-11T14:47:29.201Z,34.10
2023-03-11T14:48:38.032Z,34.40
2023-03-11T14:49:43.084Z,34.30
2023-03-11T14:50:49.693Z,33.40
2023-03-11T14:51:58.047Z,33.70
2023-03-11T14:53:08.896Z,33.00
2023-03-11T14:54:22.217Z,33.10
2023-03-11T14:55:31.172Z,33.10
2023-03-11T14:56:41.644Z,33.70
2023-03-11T14:57:48.106Z,34.30
2023-03-11T14:59:07.848Z,34.30
2023-03-11T15:00:19.760Z,34.10
2023-03-11T15:01:28.802Z,33.90
2023-03-11T15:02:45.338Z,33.20
2023-03-11T15:03:53.929Z,33.40
2023-03-11T15:05:00.163Z,33.30
2023-03-11T15:06:08.367Z,32.90
2023-03-11T15:07:10.912Z,33.10
2023-03-11T15:08:16.994Z,33.10
2023-03-11T15:09:22.088Z,33.00
2023-03-11T15:10:25.196Z,33.80
2023-03-11T15:11:30.059Z,34.20
2023-03-11T15:12:34.019Z,33.30
2023-03-11T15:13:38.573Z,34.10
2023-03-11T15:14:51.762Z,34.90
2023-03-11T15:16:00.757Z,34.70
2023-03-11T15:17:33.143Z,34.30
2023-03-11T15:18:39.672Z,34.10
2023-03-11T15:19:41.967Z,33.90
2023-03-11T15:20:45.113Z,34.30
2023-03-11T15:21:49.589Z,34.10